Savannah, Georgia
Current Conditions -  °F | °C
As of 3:58 AM on Thursday 27 Nov 2014 (Local Time) from KSVN Reporting Station
Clear Clear  
Wind Chill: 40°   Ceiling: Unl
Heat Index: 44°   Visibility: 10mi
Dew Point: 36°   Wind: 8mph
Humidity: 74%   Direction: 220°SW
Pressure: 30.12"   Gusts: NA
Location:  32.08°N, 81.09°W
Report Text: KSVN 270858Z AUTO 22007KT 10SM CLR 07/02 A3012 RMK AO2 SLP203 T00670024 57007
Loading
Personal Weather Stations






























Interactive Weather Map New forecast layout! Learn more

10-Day Weather Forecast

Advertisements
Track Severe Weather on mobile